sensor_id;sensor_type;location;lat;lon;timestamp;pressure;altitude;pressure_sealevel;temperature;humidity
78675;BME280;67990;59.826;30.108;2023-04-04T08:39:13;102271.44;;;4.24;56.85
78675;BME280;67990;59.826;30.108;2023-04-04T08:42:04;102265.69;;;4.39;57.27
78675;BME280;67990;59.826;30.108;2023-04-04T08:44:40;102259.00;;;4.55;56.91
78675;BME280;67990;59.826;30.108;2023-04-04T08:47:10;102258.13;;;4.55;55.99
78675;BME280;67990;59.826;30.108;2023-04-04T08:49:42;102270.50;;;4.71;56.13
78675;BME280;67990;59.826;30.108;2023-04-04T08:52:21;102273.78;;;4.76;55.96
78675;BME280;67990;59.826;30.108;2023-04-04T08:54:57;102265.78;;;4.59;56.58
78675;BME280;67990;59.826;30.108;2023-04-04T08:57:31;102271.09;;;4.33;56.83
78675;BME280;67990;59.826;30.108;2023-04-04T09:00:08;102266.34;;;4.67;56.46
78675;BME280;67990;59.826;30.108;2023-04-04T09:02:43;102263.34;;;4.55;55.63
78675;BME280;67990;59.826;30.108;2023-04-04T09:05:15;102276.19;;;4.59;55.58
78675;BME280;67990;59.826;30.108;2023-04-04T09:07:42;102266.19;;;4.26;56.88
78675;BME280;67990;59.826;30.108;2023-04-04T09:10:29;102272.16;;;4.51;57.36
78675;BME280;67990;59.826;30.108;2023-04-04T09:12:57;102224.13;;;4.38;56.79
78675;BME280;67990;59.826;30.108;2023-04-04T09:15:47;102265.97;;;4.76;56.14
78675;BME280;67990;59.826;30.108;2023-04-04T09:18:53;102200.56;;;4.62;55.67
78675;BME280;67990;59.826;30.108;2023-04-04T09:24:06;102263.16;;;4.81;54.49
78675;BME280;67990;59.826;30.108;2023-04-04T09:26:47;102251.78;;;4.62;55.90
78675;BME280;67990;59.826;30.108;2023-04-04T09:29:17;102263.16;;;5.02;54.55
78675;BME280;67990;59.826;30.108;2023-04-04T09:31:45;102262.28;;;4.82;56.69
78675;BME280;67990;59.826;30.108;2023-04-04T09:34:14;102266.06;;;4.73;56.31
78675;BME280;67990;59.826;30.108;2023-04-04T09:36:43;102263.44;;;4.96;55.83
78675;BME280;67990;59.826;30.108;2023-04-04T09:39:10;102258.06;;;5.21;55.18
78675;BME280;67990;59.826;30.108;2023-04-04T09:41:57;102264.03;;;5.03;56.29
78675;BME280;67990;59.826;30.108;2023-04-04T09:44:42;102265.59;;;5.07;56.03
78675;BME280;67990;59.826;30.108;2023-04-04T09:47:23;102260.06;;;5.14;55.32
78675;BME280;67990;59.826;30.108;2023-04-04T09:50:10;102265.09;;;5.19;55.24
78675;BME280;67990;59.826;30.108;2023-04-04T09:55:51;102267.19;;;5.31;54.15
78675;BME280;67990;59.826;30.108;2023-04-04T09:58:25;102251.16;;;5.20;55.55
78675;BME280;67990;59.826;30.108;2023-04-04T10:00:54;102253.06;;;5.36;53.93
78675;BME280;67990;59.826;30.108;2023-04-04T10:03:23;102256.44;;;5.18;54.99
78675;BME280;67990;59.826;30.108;2023-04-04T10:06:08;102265.03;;;5.40;53.99
78675;BME280;67990;59.826;30.108;2023-04-04T10:08:38;102267.84;;;5.36;54.98
78675;BME280;67990;59.826;30.108;2023-04-04T10:11:07;102256.91;;;5.28;54.17
78675;BME280;67990;59.826;30.108;2023-04-04T10:13:37;102217.91;;;5.05;54.59
78675;BME280;67990;59.826;30.108;2023-04-04T10:16:06;102271.22;;;5.38;54.19
78675;BME280;67990;59.826;30.108;2023-04-04T10:18:34;102234.28;;;5.48;53.68
78675;BME280;67990;59.826;30.108;2023-04-04T10:21:03;102213.81;;;5.79;52.69
78675;BME280;67990;59.826;30.108;2023-04-04T10:23:48;102280.00;;;6.16;52.28
78675;BME280;67990;59.826;30.108;2023-04-04T10:26:36;102268.31;;;5.65;53.73
78675;BME280;67990;59.826;30.108;2023-04-04T10:29:05;102274.63;;;5.80;53.32
78675;BME280;67990;59.826;30.108;2023-04-04T10:31:32;102270.31;;;5.79;53.40
78675;BME280;67990;59.826;30.108;2023-04-04T10:34:21;102278.22;;;5.57;53.81
78675;BME280;67990;59.826;30.108;2023-04-04T10:36:52;102280.03;;;5.55;53.97
78675;BME280;67990;59.826;30.108;2023-04-04T10:39:25;102251.41;;;5.34;54.46
78675;BME280;67990;59.826;30.108;2023-04-04T10:41:54;102281.78;;;5.35;54.97
78675;BME280;67990;59.826;30.108;2023-04-04T10:44:30;102249.16;;;5.26;55.19
78675;BME280;67990;59.826;30.108;2023-04-04T10:47:03;102275.28;;;5.65;54.50
78675;BME280;67990;59.826;30.108;2023-04-04T10:49:34;102222.09;;;5.09;54.66
78675;BME280;67990;59.826;30.108;2023-04-04T10:52:03;102255.66;;;5.56;54.58
78675;BME280;67990;59.826;30.108;2023-04-04T10:54:50;102269.09;;;5.67;54.09
78675;BME280;67990;59.826;30.108;2023-04-04T10:57:19;102268.75;;;5.55;54.51
78675;BME280;67990;59.826;30.108;2023-04-04T10:59:57;102284.47;;;5.53;55.07
78675;BME280;67990;59.826;30.108;2023-04-04T11:02:43;102281.34;;;5.65;54.81
78675;BME280;67990;59.826;30.108;2023-04-04T11:05:14;102261.78;;;5.75;54.30
78675;BME280;67990;59.826;30.108;2023-04-04T11:08:01;102263.75;;;5.70;53.72
78675;BME280;67990;59.826;30.108;2023-04-04T11:10:31;102252.91;;;5.81;54.04
78675;BME280;67990;59.826;30.108;2023-04-04T11:13:01;102251.38;;;5.55;54.15
78675;BME280;67990;59.826;30.108;2023-04-04T11:15:50;102277.69;;;6.10;53.71
78675;BME280;67990;59.826;30.108;2023-04-04T11:18:44;102278.44;;;6.12;53.42
78675;BME280;67990;59.826;30.108;2023-04-04T11:21:13;102283.44;;;5.97;53.77
78675;BME280;67990;59.826;30.108;2023-04-04T11:24:13;102281.22;;;6.09;53.33
78675;BME280;67990;59.826;30.108;2023-04-04T11:26:44;102281.88;;;6.51;52.86
78675;BME280;67990;59.826;30.108;2023-04-04T11:29:19;102271.94;;;6.59;52.46
78675;BME280;67990;59.826;30.108;2023-04-04T11:31:50;102281.75;;;6.54;51.55
78675;BME280;67990;59.826;30.108;2023-04-04T11:34:31;102280.38;;;6.27;51.93
78675;BME280;67990;59.826;30.108;2023-04-04T11:37:14;102270.31;;;6.38;51.93
78675;BME280;67990;59.826;30.108;2023-04-04T11:40:07;102279.41;;;6.48;52.79
78675;BME280;67990;59.826;30.108;2023-04-04T11:42:37;102276.53;;;6.35;52.80
78675;BME280;67990;59.826;30.108;2023-04-04T11:45:05;102276.16;;;5.85;53.54
78675;BME280;67990;59.826;30.108;2023-04-04T11:47:37;102257.03;;;5.65;54.46
78675;BME280;67990;59.826;30.108;2023-04-04T11:50:07;102277.03;;;5.64;55.01
78675;BME280;67990;59.826;30.108;2023-04-04T11:52:35;102280.50;;;5.45;54.01
78675;BME280;67990;59.826;30.108;2023-04-04T11:55:13;102276.78;;;5.30;56.19
78675;BME280;67990;59.826;30.108;2023-04-04T11:58:07;102274.53;;;5.21;56.12
78675;BME280;67990;59.826;30.108;2023-04-04T12:00:35;102275.28;;;5.03;56.21
78675;BME280;67990;59.826;30.108;2023-04-04T12:03:06;102277.38;;;5.15;56.77
78675;BME280;67990;59.826;30.108;2023-04-04T12:05:36;102278.19;;;5.17;56.38
78675;BME280;67990;59.826;30.108;2023-04-04T12:08:04;102278.78;;;5.64;55.93
78675;BME280;67990;59.826;30.108;2023-04-04T12:10:50;102275.34;;;5.43;56.21
78675;BME280;67990;59.826;30.108;2023-04-04T12:13:17;102273.50;;;5.25;56.65
78675;BME280;67990;59.826;30.108;2023-04-04T12:15:47;102263.28;;;4.99;57.01
78675;BME280;67990;59.826;30.108;2023-04-04T12:18:33;102275.41;;;5.00;57.25
78675;BME280;67990;59.826;30.108;2023-04-04T12:21:18;102280.09;;;4.92;57.89
78675;BME280;67990;59.826;30.108;2023-04-04T12:26:51;102271.56;;;4.87;57.57
78675;BME280;67990;59.826;30.108;2023-04-04T12:29:56;102274.13;;;4.89;57.78
78675;BME280;67990;59.826;30.108;2023-04-04T12:32:38;102272.50;;;4.86;58.25
78675;BME280;67990;59.826;30.108;2023-04-04T12:35:09;102268.25;;;5.05;57.43
78675;BME280;67990;59.826;30.108;2023-04-04T12:37:36;102280.31;;;5.08;57.80
78675;BME280;67990;59.826;30.108;2023-04-04T12:43:08;102278.22;;;5.37;56.53
78675;BME280;67990;59.826;30.108;2023-04-04T12:46:11;102279.72;;;5.63;55.66
78675;BME280;67990;59.826;30.108;2023-04-04T12:48:39;102279.41;;;5.50;56.53
78675;BME280;67990;59.826;30.108;2023-04-04T12:51:09;102273.91;;;5.56;56.10
78675;BME280;67990;59.826;30.108;2023-04-04T12:53:49;102276.22;;;5.84;55.84
78675;BME280;67990;59.826;30.108;2023-04-04T13:04:34;102279.97;;;4.74;59.43
78675;BME280;67990;59.826;30.108;2023-04-04T13:07:04;102281.41;;;5.02;59.17
78675;BME280;67990;59.826;30.108;2023-04-04T13:12:17;102272.81;;;5.00;57.61
78675;BME280;67990;59.826;30.108;2023-04-04T13:18:12;102291.66;;;5.07;58.30
78675;BME280;67990;59.826;30.108;2023-04-04T13:20:39;102281.91;;;5.32;58.43
78675;BME280;67990;59.826;30.108;2023-04-04T13:23:08;102290.28;;;5.18;58.54
78675;BME280;67990;59.826;30.108;2023-04-04T13:25:35;102282.31;;;5.01;58.81
78675;BME280;67990;59.826;30.108;2023-04-04T13:28:03;102285.06;;;5.40;57.90
78675;BME280;67990;59.826;30.108;2023-04-04T13:30:30;102287.94;;;5.12;58.70
78675;BME280;67990;59.826;30.108;2023-04-04T13:33:34;102283.50;;;5.14;58.55
78675;BME280;67990;59.826;30.108;2023-04-04T13:36:20;102273.84;;;4.96;59.53
78675;BME280;67990;59.826;30.108;2023-04-04T13:39:24;102281.03;;;4.68;59.79
78675;BME280;67990;59.826;30.108;2023-04-04T13:42:27;102289.06;;;4.62;60.60
78675;BME280;67990;59.826;30.108;2023-04-04T13:44:56;102275.28;;;4.60;60.71
78675;BME280;67990;59.826;30.108;2023-04-04T13:47:23;102271.09;;;4.56;60.91
78675;BME280;67990;59.826;30.108;2023-04-04T13:49:52;102273.59;;;4.59;61.36
78675;BME280;67990;59.826;30.108;2023-04-04T13:52:37;102272.91;;;4.76;60.76
78675;BME280;67990;59.826;30.108;2023-04-04T13:57:51;102266.63;;;4.81;60.06
78675;BME280;67990;59.826;30.108;2023-04-04T14:00:37;102278.63;;;4.85;60.19
78675;BME280;67990;59.826;30.108;2023-04-04T14:03:05;102281.34;;;4.61;60.33
78675;BME280;67990;59.826;30.108;2023-04-04T14:05:32;102281.97;;;4.44;60.63
78675;BME280;67990;59.826;30.108;2023-04-04T14:07:59;102270.13;;;4.36;60.83
78675;BME280;67990;59.826;30.108;2023-04-04T14:10:28;102267.53;;;4.36;61.24
78675;BME280;67990;59.826;30.108;2023-04-04T14:13:13;102282.78;;;4.46;60.46
78675;BME280;67990;59.826;30.108;2023-04-04T14:18:43;102264.16;;;4.11;60.40
78675;BME280;67990;59.826;30.108;2023-04-04T14:21:10;102287.94;;;4.00;61.44
78675;BME280;67990;59.826;30.108;2023-04-04T14:23:37;102280.66;;;3.87;61.09
78675;BME280;67990;59.826;30.108;2023-04-04T14:26:06;102253.88;;;3.60;62.47
78675;BME280;67990;59.826;30.108;2023-04-04T14:28:33;102291.25;;;4.05;62.28
78675;BME280;67990;59.826;30.108;2023-04-04T14:31:00;102265.56;;;3.96;61.33
78675;BME280;67990;59.826;30.108;2023-04-04T14:33:28;102284.13;;;4.10;61.13
78675;BME280;67990;59.826;30.108;2023-04-04T14:36:13;102289.75;;;3.98;62.08
78675;BME280;67990;59.826;30.108;2023-04-04T14:38:40;102287.25;;;4.20;61.24
78675;BME280;67990;59.826;30.108;2023-04-04T14:41:09;102290.47;;;4.26;61.70
78675;BME280;67990;59.826;30.108;2023-04-04T14:43:36;102262.41;;;4.11;61.43
78675;BME280;67990;59.826;30.108;2023-04-04T14:46:04;102262.31;;;4.36;60.21
78675;BME280;67990;59.826;30.108;2023-04-04T14:48:31;102282.81;;;4.22;60.85
78675;BME280;67990;59.826;30.108;2023-04-04T14:50:59;102264.03;;;4.14;60.68
78675;BME280;67990;59.826;30.108;2023-04-04T14:56:13;102272.81;;;4.11;60.26
78675;BME280;67990;59.826;30.108;2023-04-04T14:58:57;102256.50;;;3.83;61.13
78675;BME280;67990;59.826;30.108;2023-04-04T15:01:26;102272.97;;;4.07;60.77
78675;BME280;67990;59.826;30.108;2023-04-04T15:03:54;102273.44;;;3.95;61.95
78675;BME280;67990;59.826;30.108;2023-04-04T15:09:07;102253.81;;;3.62;60.94
78675;BME280;67990;59.826;30.108;2023-04-04T15:11:36;102261.03;;;3.78;61.11
78675;BME280;67990;59.826;30.108;2023-04-04T15:14:03;102269.66;;;3.54;61.47
78675;BME280;67990;59.826;30.108;2023-04-04T15:16:31;102233.19;;;3.33;61.26
78675;BME280;67990;59.826;30.108;2023-04-04T15:18:59;102269.13;;;3.45;60.72
78675;BME280;67990;59.826;30.108;2023-04-04T15:21:27;102285.28;;;3.53;61.95
78675;BME280;67990;59.826;30.108;2023-04-04T15:23:54;102256.94;;;3.47;61.79
78675;BME280;67990;59.826;30.108;2023-04-04T15:26:21;102291.53;;;3.73;61.59
78675;BME280;67990;59.826;30.108;2023-04-04T15:31:35;102288.28;;;3.91;61.20
78675;BME280;67990;59.826;30.108;2023-04-04T15:34:02;102258.69;;;3.46;61.47
78675;BME280;67990;59.826;30.108;2023-04-04T15:36:29;102286.31;;;3.73;61.25
78675;BME280;67990;59.826;30.108;2023-04-04T15:39:14;102262.31;;;3.41;61.68
78675;BME280;67990;59.826;30.108;2023-04-04T15:44:47;102297.56;;;3.49;62.58
78675;BME280;67990;59.826;30.108;2023-04-04T15:47:33;102266.09;;;3.32;62.93
78675;BME280;67990;59.826;30.108;2023-04-04T15:50:19;102272.38;;;3.51;62.22
78675;BME280;67990;59.826;30.108;2023-04-04T15:52:46;102300.00;;;3.78;61.82
78675;BME280;67990;59.826;30.108;2023-04-04T15:55:13;102297.78;;;3.68;61.36
78675;BME280;67990;59.826;30.108;2023-04-04T15:58:00;102300.09;;;3.51;61.98
78675;BME280;67990;59.826;30.108;2023-04-04T16:03:14;102289.03;;;3.46;61.81
78675;BME280;67990;59.826;30.108;2023-04-04T16:05:42;102264.09;;;2.88;63.09
78675;BME280;67990;59.826;30.108;2023-04-04T16:08:09;102296.38;;;3.07;63.26
78675;BME280;67990;59.826;30.108;2023-04-04T16:13:22;102292.31;;;2.71;63.85
78675;BME280;67990;59.826;30.108;2023-04-04T16:15:50;102305.63;;;2.88;64.57
78675;BME280;67990;59.826;30.108;2023-04-04T16:18:54;102302.84;;;3.20;63.91
78675;BME280;67990;59.826;30.108;2023-04-04T16:21:21;102270.97;;;2.89;63.76
78675;BME280;67990;59.826;30.108;2023-04-04T16:23:49;102290.88;;;3.16;63.66
78675;BME280;67990;59.826;30.108;2023-04-04T16:32:26;102259.66;;;2.92;63.87
78675;BME280;67990;59.826;30.108;2023-04-04T16:35:11;102309.47;;;3.03;64.70
78675;BME280;67990;59.826;30.108;2023-04-04T16:37:38;102275.03;;;2.98;64.44
78675;BME280;67990;59.826;30.108;2023-04-04T16:40:06;102283.50;;;3.03;64.64
78675;BME280;67990;59.826;30.108;2023-04-04T16:42:51;102287.88;;;3.02;64.70
78675;BME280;67990;59.826;30.108;2023-04-04T16:45:37;102313.78;;;3.04;65.24
78675;BME280;67990;59.826;30.108;2023-04-04T16:48:24;102316.19;;;3.10;65.12
78675;BME280;67990;59.826;30.108;2023-04-04T16:50:52;102290.00;;;2.90;65.12
78675;BME280;67990;59.826;30.108;2023-04-04T16:53:19;102284.47;;;3.00;65.10
78675;BME280;67990;59.826;30.108;2023-04-04T16:58:51;102303.19;;;2.84;64.94
78675;BME280;67990;59.826;30.108;2023-04-04T17:01:19;102304.13;;;2.81;65.23
78675;BME280;67990;59.826;30.108;2023-04-04T17:03:49;102288.44;;;2.57;65.80
78675;BME280;67990;59.826;30.108;2023-04-04T17:09:02;102326.03;;;2.71;66.41
78675;BME280;67990;59.826;30.108;2023-04-04T17:11:29;102327.31;;;2.58;66.72
78675;BME280;67990;59.826;30.108;2023-04-04T17:13:56;102311.06;;;2.52;66.34
78675;BME280;67990;59.826;30.108;2023-04-04T17:16:42;102314.91;;;2.68;66.06
78675;BME280;67990;59.826;30.108;2023-04-04T17:19:11;102311.78;;;2.57;66.25
78675;BME280;67990;59.826;30.108;2023-04-04T17:21:56;102329.00;;;2.59;66.46
78675;BME280;67990;59.826;30.108;2023-04-04T17:24:24;102303.66;;;2.67;66.53
78675;BME280;67990;59.826;30.108;2023-04-04T17:26:52;102314.31;;;2.87;66.16
78675;BME280;67990;59.826;30.108;2023-04-04T17:29:38;102330.28;;;3.01;65.63
78675;BME280;67990;59.826;30.108;2023-04-04T17:32:23;102333.53;;;3.08;65.80
78675;BME280;67990;59.826;30.108;2023-04-04T17:34:52;102329.66;;;2.93;66.36
78675;BME280;67990;59.826;30.108;2023-04-04T17:37:21;102332.66;;;2.81;66.27
78675;BME280;67990;59.826;30.108;2023-04-04T17:39:48;102322.06;;;2.60;66.75
78675;BME280;67990;59.826;30.108;2023-04-04T17:42:33;102336.25;;;2.77;67.03
78675;BME280;67990;59.826;30.108;2023-04-04T17:45:00;102344.88;;;2.78;66.89
78675;BME280;67990;59.826;30.108;2023-04-04T17:47:27;102303.34;;;2.78;66.40
78675;BME280;67990;59.826;30.108;2023-04-04T17:49:56;102328.84;;;2.93;66.20
78675;BME280;67990;59.826;30.108;2023-04-04T17:52:23;102322.41;;;2.77;67.19
78675;BME280;67990;59.826;30.108;2023-04-04T17:54:52;102333.03;;;2.97;66.93
78675;BME280;67990;59.826;30.108;2023-04-04T17:57:19;102327.94;;;2.94;66.45
78675;BME280;67990;59.826;30.108;2023-04-04T17:59:46;102320.06;;;2.97;66.55
78675;BME280;67990;59.826;30.108;2023-04-04T18:02:14;102322.44;;;3.03;66.48
78675;BME280;67990;59.826;30.108;2023-04-04T18:07:28;102311.72;;;3.13;66.18
78675;BME280;67990;59.826;30.108;2023-04-04T18:10:31;102310.84;;;3.14;66.50
78675;BME280;67990;59.826;30.108;2023-04-04T18:13:17;102315.19;;;3.14;67.06
78675;BME280;67990;59.826;30.108;2023-04-04T18:15:44;102292.75;;;2.85;66.66
78675;BME280;67990;59.826;30.108;2023-04-04T18:18:11;102292.94;;;2.79;67.06
78675;BME280;67990;59.826;30.108;2023-04-04T18:20:38;102296.88;;;2.63;67.94
78675;BME280;67990;59.826;30.108;2023-04-04T18:26:28;102293.34;;;2.66;67.95
78675;BME280;67990;59.826;30.108;2023-04-04T18:29:14;102313.03;;;3.00;67.68
78675;BME280;67990;59.826;30.108;2023-04-04T18:31:41;102309.81;;;2.92;68.17
78675;BME280;67990;59.826;30.108;2023-04-04T18:34:08;102284.44;;;2.47;68.46
78675;BME280;67990;59.826;30.108;2023-04-04T18:36:39;102316.38;;;2.47;69.37
78675;BME280;67990;59.826;30.108;2023-04-04T18:39:08;102323.22;;;2.50;69.86
78675;BME280;67990;59.826;30.108;2023-04-04T18:41:36;102321.91;;;2.64;69.38
78675;BME280;67990;59.826;30.108;2023-04-04T18:44:03;102295.91;;;2.38;70.22
78675;BME280;67990;59.826;30.108;2023-04-04T18:46:30;102302.78;;;2.68;69.31
78675;BME280;67990;59.826;30.108;2023-04-04T18:48:57;102315.28;;;2.83;68.81
78675;BME280;67990;59.826;30.108;2023-04-04T18:51:24;102306.94;;;2.74;68.82
78675;BME280;67990;59.826;30.108;2023-04-04T18:53:52;102296.44;;;2.49;69.06
78675;BME280;67990;59.826;30.108;2023-04-04T18:59:06;102294.53;;;2.27;70.54
78675;BME280;67990;59.826;30.108;2023-04-04T19:01:51;102310.66;;;2.36;70.93
78675;BME280;67990;59.826;30.108;2023-04-04T19:04:21;102317.66;;;2.62;70.62
78675;BME280;67990;59.826;30.108;2023-04-04T19:06:49;102318.59;;;2.88;69.84
78675;BME280;67990;59.826;30.108;2023-04-04T19:09:18;102330.06;;;2.81;69.55
78675;BME280;67990;59.826;30.108;2023-04-04T19:11:47;102296.97;;;2.31;71.42
78675;BME280;67990;59.826;30.108;2023-04-04T19:14:31;102277.69;;;2.11;71.62
78675;BME280;67990;59.826;30.108;2023-04-04T19:17:35;102315.41;;;2.79;71.04
78675;BME280;67990;59.826;30.108;2023-04-04T19:20:38;102316.56;;;2.70;71.05
78675;BME280;67990;59.826;30.108;2023-04-04T19:23:07;102320.72;;;2.76;70.36
78675;BME280;67990;59.826;30.108;2023-04-04T19:25:34;102324.06;;;2.79;70.18
78675;BME280;67990;59.826;30.108;2023-04-04T19:30:48;102307.47;;;2.85;70.66
78675;BME280;67990;59.826;30.108;2023-04-04T19:33:52;102322.13;;;2.86;70.51
78675;BME280;67990;59.826;30.108;2023-04-04T19:39:07;102312.22;;;2.71;71.26
78675;BME280;67990;59.826;30.108;2023-04-04T19:41:36;102316.66;;;2.67;71.54
78675;BME280;67990;59.826;30.108;2023-04-04T19:44:12;102297.88;;;2.30;72.85
78675;BME280;67990;59.826;30.108;2023-04-04T19:52:22;102318.28;;;2.97;71.36
78675;BME280;67990;59.826;30.108;2023-04-04T19:54:50;102321.56;;;2.76;72.09
78675;BME280;67990;59.826;30.108;2023-04-04T19:57:54;102312.91;;;2.77;72.54
78675;BME280;67990;59.826;30.108;2023-04-04T20:03:29;102286.09;;;2.77;72.41
78675;BME280;67990;59.826;30.108;2023-04-04T20:06:06;102316.69;;;2.93;71.82
78675;BME280;67990;59.826;30.108;2023-04-04T20:08:54;102320.50;;;3.09;71.77
78675;BME280;67990;59.826;30.108;2023-04-04T20:11:24;102298.00;;;2.84;71.99
78675;BME280;67990;59.826;30.108;2023-04-04T20:13:54;102300.75;;;2.78;72.12
78675;BME280;67990;59.826;30.108;2023-04-04T20:16:41;102321.72;;;2.99;72.24
78675;BME280;67990;59.826;30.108;2023-04-04T20:19:27;102326.56;;;2.55;74.46
78675;BME280;67990;59.826;30.108;2023-04-04T20:21:55;102305.66;;;2.59;74.22
78675;BME280;67990;59.826;30.108;2023-04-04T20:24:22;102325.88;;;2.48;74.85
78675;BME280;67990;59.826;30.108;2023-04-04T20:29:36;102321.38;;;2.82;74.43
78675;BME280;67990;59.826;30.108;2023-04-04T20:32:21;102316.28;;;2.79;74.14
78675;BME280;67990;59.826;30.108;2023-04-04T20:34:49;102282.84;;;2.70;73.67
78675;BME280;67990;59.826;30.108;2023-04-04T20:37:34;102323.63;;;2.65;74.94
78675;BME280;67990;59.826;30.108;2023-04-04T20:40:32;102310.38;;;2.74;75.03
78675;BME280;67990;59.826;30.108;2023-04-04T20:43:21;102280.06;;;2.75;74.13
78675;BME280;67990;59.826;30.108;2023-04-04T20:46:07;102280.91;;;2.77;74.31
78675;BME280;67990;59.826;30.108;2023-04-04T20:48:37;102295.72;;;2.73;74.62
78675;BME280;67990;59.826;30.108;2023-04-04T20:51:25;102306.22;;;2.96;74.50
78675;BME280;67990;59.826;30.108;2023-04-04T20:54:11;102286.41;;;2.94;73.84
78675;BME280;67990;59.826;30.108;2023-04-04T20:56:44;102288.19;;;2.64;74.72
78675;BME280;67990;59.826;30.108;2023-04-04T20:59:48;102315.31;;;3.09;74.46
78675;BME280;67990;59.826;30.108;2023-04-04T21:02:17;102292.28;;;2.99;73.85
78675;BME280;67990;59.826;30.108;2023-04-04T21:04:47;102278.81;;;2.60;74.55
78675;BME280;67990;59.826;30.108;2023-04-04T21:07:36;102327.44;;;3.10;74.03
78675;BME280;67990;59.826;30.108;2023-04-04T21:10:22;102324.53;;;3.19;73.81
78675;BME280;67990;59.826;30.108;2023-04-04T21:12:51;102326.13;;;3.23;73.85
78675;BME280;67990;59.826;30.108;2023-04-04T21:15:20;102283.50;;;2.77;73.75
78675;BME280;67990;59.826;30.108;2023-04-04T21:18:23;102331.47;;;3.19;74.17
78675;BME280;67990;59.826;30.108;2023-04-04T21:21:13;102337.34;;;3.24;73.84
78675;BME280;67990;59.826;30.108;2023-04-04T21:23:46;102346.91;;;3.23;73.72
78675;BME280;67990;59.826;30.108;2023-04-04T21:26:35;102349.34;;;3.00;74.54
78675;BME280;67990;59.826;30.108;2023-04-04T21:29:04;102292.97;;;2.78;74.42
78675;BME280;67990;59.826;30.108;2023-04-04T21:31:37;102293.16;;;2.72;74.87
78675;BME280;67990;59.826;30.108;2023-04-04T21:34:10;102329.75;;;2.92;74.73
78675;BME280;67990;59.826;30.108;2023-04-04T21:36:39;102327.38;;;2.84;74.84
78675;BME280;67990;59.826;30.108;2023-04-04T21:39:10;102341.47;;;2.76;75.75
78675;BME280;67990;59.826;30.108;2023-04-04T21:41:38;102360.94;;;2.90;76.11
78675;BME280;67990;59.826;30.108;2023-04-04T21:44:08;102282.50;;;2.53;75.24
78675;BME280;67990;59.826;30.108;2023-04-04T21:49:41;102356.41;;;2.97;76.00
78675;BME280;67990;59.826;30.108;2023-04-04T21:52:10;102339.78;;;3.02;75.11
78675;BME280;67990;59.826;30.108;2023-04-04T21:54:37;102331.47;;;3.19;74.48
78675;BME280;67990;59.826;30.108;2023-04-04T21:57:05;102311.06;;;3.07;74.70
78675;BME280;67990;59.826;30.108;2023-04-04T21:59:50;102360.19;;;3.14;74.91
78675;BME280;67990;59.826;30.108;2023-04-04T22:02:17;102330.09;;;3.07;74.66
78675;BME280;67990;59.826;30.108;2023-04-04T22:04:44;102325.88;;;3.05;75.16
78675;BME280;67990;59.826;30.108;2023-04-04T22:07:32;102358.75;;;3.04;75.85
78675;BME280;67990;59.826;30.108;2023-04-04T22:09:59;102360.28;;;3.11;75.51
78675;BME280;67990;59.826;30.108;2023-04-04T22:12:29;102367.28;;;3.08;75.97
78675;BME280;67990;59.826;30.108;2023-04-04T22:18:19;102372.41;;;3.11;76.01
78675;BME280;67990;59.826;30.108;2023-04-04T22:21:14;102376.03;;;3.05;76.22
78675;BME280;67990;59.826;30.108;2023-04-04T22:23:43;102381.78;;;3.15;76.21
78675;BME280;67990;59.826;30.108;2023-04-04T22:26:11;102380.97;;;3.14;76.00
78675;BME280;67990;59.826;30.108;2023-04-04T22:28:41;102380.09;;;3.14;75.60
78675;BME280;67990;59.826;30.108;2023-04-04T22:31:10;102369.03;;;2.51;77.50
78675;BME280;67990;59.826;30.108;2023-04-04T22:36:42;102384.88;;;3.00;76.84
78675;BME280;67990;59.826;30.108;2023-04-04T22:39:11;102390.72;;;3.06;76.55
78675;BME280;67990;59.826;30.108;2023-04-04T22:41:40;102366.09;;;2.92;76.63
78675;BME280;67990;59.826;30.108;2023-04-04T22:47:17;102350.31;;;2.98;76.66
78675;BME280;67990;59.826;30.108;2023-04-04T22:49:44;102357.31;;;2.67;77.01
78675;BME280;67990;59.826;30.108;2023-04-04T22:52:14;102385.97;;;2.62;78.18
78675;BME280;67990;59.826;30.108;2023-04-04T22:55:00;102393.38;;;2.76;78.07
78675;BME280;67990;59.826;30.108;2023-04-04T22:57:48;102385.09;;;2.63;78.52
78675;BME280;67990;59.826;30.108;2023-04-04T23:00:16;102356.53;;;2.34;78.59
78675;BME280;67990;59.826;30.108;2023-04-04T23:02:45;102359.03;;;2.37;78.99
78675;BME280;67990;59.826;30.108;2023-04-04T23:05:14;102386.38;;;2.49;79.58
78675;BME280;67990;59.826;30.108;2023-04-04T23:07:43;102364.91;;;2.44;79.45
78675;BME280;67990;59.826;30.108;2023-04-04T23:10:13;102376.00;;;2.78;78.13
78675;BME280;67990;59.826;30.108;2023-04-04T23:15:27;102364.50;;;2.86;77.75
78675;BME280;67990;59.826;30.108;2023-04-04T23:17:54;102388.91;;;3.08;76.96
78675;BME280;67990;59.826;30.108;2023-04-04T23:20:21;102386.06;;;3.16;76.65
78675;BME280;67990;59.826;30.108;2023-04-04T23:22:49;102363.88;;;2.78;77.02
78675;BME280;67990;59.826;30.108;2023-04-04T23:26:12;102383.28;;;2.67;78.38
78675;BME280;67990;59.826;30.108;2023-04-04T23:28:39;102365.81;;;2.72;78.01
78675;BME280;67990;59.826;30.108;2023-04-04T23:31:06;102344.66;;;2.85;77.51
78675;BME280;67990;59.826;30.108;2023-04-04T23:33:35;102364.56;;;2.56;78.19
78675;BME280;67990;59.826;30.108;2023-04-04T23:36:19;102348.94;;;2.86;76.79
78675;BME280;67990;59.826;30.108;2023-04-04T23:39:05;102384.09;;;3.24;76.48
78675;BME280;67990;59.826;30.108;2023-04-04T23:41:33;102378.78;;;3.28;75.61
78675;BME280;67990;59.826;30.108;2023-04-04T23:44:19;102380.06;;;3.41;75.20
78675;BME280;67990;59.826;30.108;2023-04-04T23:47:22;102384.56;;;3.36;75.25
78675;BME280;67990;59.826;30.108;2023-04-04T23:49:50;102374.31;;;3.32;75.08